sensor_id;sensor_type;location;lat;lon;timestamp;P1;durP1;ratioP1;P2;durP2;ratioP2
78818;SDS011;68166;55.090;37.460;2023-05-10T00:00:22;2.15;;;0.70;;
78818;SDS011;68166;55.090;37.460;2023-05-10T00:10:26;1.42;;;1.10;;
78818;SDS011;68166;55.090;37.460;2023-05-10T00:15:28;1.73;;;1.52;;
78818;SDS011;68166;55.090;37.460;2023-05-10T00:20:31;2.47;;;1.20;;
78818;SDS011;68166;55.090;37.460;2023-05-10T00:25:33;1.30;;;0.80;;
78818;SDS011;68166;55.090;37.460;2023-05-10T00:35:37;1.38;;;0.82;;
78818;SDS011;68166;55.090;37.460;2023-05-10T00:40:39;2.33;;;1.45;;
78818;SDS011;68166;55.090;37.460;2023-05-10T00:50:42;1.17;;;0.90;;
78818;SDS011;68166;55.090;37.460;2023-05-10T00:55:45;2.65;;;1.85;;
78818;SDS011;68166;55.090;37.460;2023-05-10T01:00:47;4.10;;;2.80;;
78818;SDS011;68166;55.090;37.460;2023-05-10T01:05:49;10.68;;;1.88;;
78818;SDS011;68166;55.090;37.460;2023-05-10T01:15:53;2.53;;;0.82;;
78818;SDS011;68166;55.090;37.460;2023-05-10T01:21:12;2.83;;;1.48;;
78818;SDS011;68166;55.090;37.460;2023-05-10T01:37:06;1.75;;;1.50;;
78818;SDS011;68166;55.090;37.460;2023-05-10T01:42:11;1.58;;;1.05;;
78818;SDS011;68166;55.090;37.460;2023-05-10T01:47:16;5.03;;;2.38;;
78818;SDS011;68166;55.090;37.460;2023-05-10T01:52:32;2.63;;;2.00;;
78818;SDS011;68166;55.090;37.460;2023-05-10T01:57:36;1.83;;;1.17;;
78818;SDS011;68166;55.090;37.460;2023-05-10T02:02:40;5.22;;;1.63;;
78818;SDS011;68166;55.090;37.460;2023-05-10T02:07:46;4.43;;;2.03;;
78818;SDS011;68166;55.090;37.460;2023-05-10T02:12:48;2.85;;;1.17;;
78818;SDS011;68166;55.090;37.460;2023-05-10T02:17:52;3.90;;;2.25;;
78818;SDS011;68166;55.090;37.460;2023-05-10T02:22:56;3.05;;;1.90;;
78818;SDS011;68166;55.090;37.460;2023-05-10T02:27:59;3.92;;;1.98;;
78818;SDS011;68166;55.090;37.460;2023-05-10T02:33:04;4.90;;;3.15;;
78818;SDS011;68166;55.090;37.460;2023-05-10T02:38:07;2.72;;;1.67;;
78818;SDS011;68166;55.090;37.460;2023-05-10T02:43:09;4.78;;;1.42;;
78818;SDS011;68166;55.090;37.460;2023-05-10T02:48:13;2.03;;;1.60;;
78818;SDS011;68166;55.090;37.460;2023-05-10T02:53:15;1.48;;;0.93;;
78818;SDS011;68166;55.090;37.460;2023-05-10T02:58:22;6.35;;;3.15;;
78818;SDS011;68166;55.090;37.460;2023-05-10T03:08:25;3.65;;;2.55;;
78818;SDS011;68166;55.090;37.460;2023-05-10T03:13:39;3.30;;;1.90;;
78818;SDS011;68166;55.090;37.460;2023-05-10T03:18:56;5.43;;;2.78;;
78818;SDS011;68166;55.090;37.460;2023-05-10T03:24:10;3.85;;;2.28;;
78818;SDS011;68166;55.090;37.460;2023-05-10T03:29:16;6.32;;;2.17;;
78818;SDS011;68166;55.090;37.460;2023-05-10T03:34:23;2.50;;;1.45;;
78818;SDS011;68166;55.090;37.460;2023-05-10T03:39:25;7.32;;;2.80;;
78818;SDS011;68166;55.090;37.460;2023-05-10T03:44:27;7.68;;;3.10;;
78818;SDS011;68166;55.090;37.460;2023-05-10T03:49:29;7.15;;;3.30;;
78818;SDS011;68166;55.090;37.460;2023-05-10T03:54:31;5.70;;;3.40;;
78818;SDS011;68166;55.090;37.460;2023-05-10T03:59:33;5.00;;;2.45;;
78818;SDS011;68166;55.090;37.460;2023-05-10T04:04:35;4.57;;;2.40;;
78818;SDS011;68166;55.090;37.460;2023-05-10T04:09:37;3.63;;;1.98;;
78818;SDS011;68166;55.090;37.460;2023-05-10T04:14:39;4.78;;;2.60;;
78818;SDS011;68166;55.090;37.460;2023-05-10T04:19:41;10.25;;;2.78;;
78818;SDS011;68166;55.090;37.460;2023-05-10T04:24:43;6.95;;;3.60;;
78818;SDS011;68166;55.090;37.460;2023-05-10T04:29:45;8.70;;;3.53;;
78818;SDS011;68166;55.090;37.460;2023-05-10T04:34:47;5.93;;;3.35;;
78818;SDS011;68166;55.090;37.460;2023-05-10T04:39:49;4.15;;;3.22;;
78818;SDS011;68166;55.090;37.460;2023-05-10T04:44:51;6.47;;;3.30;;
78818;SDS011;68166;55.090;37.460;2023-05-10T04:49:53;5.97;;;2.88;;
78818;SDS011;68166;55.090;37.460;2023-05-10T04:54:55;4.05;;;2.97;;
78818;SDS011;68166;55.090;37.460;2023-05-10T04:59:57;5.70;;;3.22;;
78818;SDS011;68166;55.090;37.460;2023-05-10T05:04:59;9.02;;;2.83;;
78818;SDS011;68166;55.090;37.460;2023-05-10T05:10:03;4.95;;;2.75;;
78818;SDS011;68166;55.090;37.460;2023-05-10T05:15:07;6.65;;;3.17;;
78818;SDS011;68166;55.090;37.460;2023-05-10T05:20:10;5.60;;;3.22;;
78818;SDS011;68166;55.090;37.460;2023-05-10T05:25:14;5.65;;;2.45;;
78818;SDS011;68166;55.090;37.460;2023-05-10T05:30:16;5.05;;;2.90;;
78818;SDS011;68166;55.090;37.460;2023-05-10T05:35:18;4.47;;;2.63;;
78818;SDS011;68166;55.090;37.460;2023-05-10T05:40:20;6.07;;;2.90;;
78818;SDS011;68166;55.090;37.460;2023-05-10T05:45:22;5.35;;;2.70;;
78818;SDS011;68166;55.090;37.460;2023-05-10T05:50:24;7.40;;;3.83;;
78818;SDS011;68166;55.090;37.460;2023-05-10T05:55:26;5.97;;;3.92;;
78818;SDS011;68166;55.090;37.460;2023-05-10T06:00:28;4.80;;;2.85;;
78818;SDS011;68166;55.090;37.460;2023-05-10T06:05:30;6.20;;;3.20;;
78818;SDS011;68166;55.090;37.460;2023-05-10T06:10:32;4.78;;;2.60;;
78818;SDS011;68166;55.090;37.460;2023-05-10T06:15:34;5.65;;;3.38;;
78818;SDS011;68166;55.090;37.460;2023-05-10T06:20:36;5.93;;;2.88;;
78818;SDS011;68166;55.090;37.460;2023-05-10T06:25:38;3.60;;;2.03;;
78818;SDS011;68166;55.090;37.460;2023-05-10T06:30:41;7.43;;;2.10;;
78818;SDS011;68166;55.090;37.460;2023-05-10T06:35:43;3.97;;;1.98;;
78818;SDS011;68166;55.090;37.460;2023-05-10T06:40:45;4.93;;;1.85;;
78818;SDS011;68166;55.090;37.460;2023-05-10T06:45:50;5.72;;;1.95;;
78818;SDS011;68166;55.090;37.460;2023-05-10T06:50:54;4.97;;;2.03;;
78818;SDS011;68166;55.090;37.460;2023-05-10T06:55:56;2.00;;;0.90;;
78818;SDS011;68166;55.090;37.460;2023-05-10T07:01:04;2.13;;;1.15;;
78818;SDS011;68166;55.090;37.460;2023-05-10T07:06:06;3.83;;;1.60;;
78818;SDS011;68166;55.090;37.460;2023-05-10T07:11:08;2.40;;;1.00;;
78818;SDS011;68166;55.090;37.460;2023-05-10T07:16:13;3.65;;;1.08;;
78818;SDS011;68166;55.090;37.460;2023-05-10T07:21:15;4.65;;;1.23;;
78818;SDS011;68166;55.090;37.460;2023-05-10T07:26:17;3.97;;;1.55;;
78818;SDS011;68166;55.090;37.460;2023-05-10T07:31:20;1.77;;;0.88;;
78818;SDS011;68166;55.090;37.460;2023-05-10T07:36:22;2.22;;;1.17;;
78818;SDS011;68166;55.090;37.460;2023-05-10T07:41:25;3.78;;;1.60;;
78818;SDS011;68166;55.090;37.460;2023-05-10T07:46:27;3.55;;;1.05;;
78818;SDS011;68166;55.090;37.460;2023-05-10T07:51:29;2.58;;;0.80;;
78818;SDS011;68166;55.090;37.460;2023-05-10T07:56:31;2.35;;;1.15;;
78818;SDS011;68166;55.090;37.460;2023-05-10T08:01:34;2.92;;;1.25;;
78818;SDS011;68166;55.090;37.460;2023-05-10T08:06:36;2.00;;;1.15;;
78818;SDS011;68166;55.090;37.460;2023-05-10T08:11:38;2.80;;;1.52;;
78818;SDS011;68166;55.090;37.460;2023-05-10T08:16:40;2.17;;;0.90;;
78818;SDS011;68166;55.090;37.460;2023-05-10T08:21:42;1.88;;;0.82;;
78818;SDS011;68166;55.090;37.460;2023-05-10T08:26:44;1.63;;;0.80;;
78818;SDS011;68166;55.090;37.460;2023-05-10T08:31:46;3.40;;;0.93;;
78818;SDS011;68166;55.090;37.460;2023-05-10T08:36:48;4.18;;;0.82;;
78818;SDS011;68166;55.090;37.460;2023-05-10T08:41:50;3.10;;;1.08;;
78818;SDS011;68166;55.090;37.460;2023-05-10T08:46:53;7.88;;;2.65;;
78818;SDS011;68166;55.090;37.460;2023-05-10T08:51:55;2.53;;;1.25;;
78818;SDS011;68166;55.090;37.460;2023-05-10T08:56:58;2.10;;;1.10;;
78818;SDS011;68166;55.090;37.460;2023-05-10T09:02:04;2.90;;;0.80;;
78818;SDS011;68166;55.090;37.460;2023-05-10T09:07:07;3.17;;;1.00;;
78818;SDS011;68166;55.090;37.460;2023-05-10T09:12:09;2.97;;;0.80;;
78818;SDS011;68166;55.090;37.460;2023-05-10T09:17:12;3.10;;;0.95;;
78818;SDS011;68166;55.090;37.460;2023-05-10T09:22:14;1.88;;;0.77;;
78818;SDS011;68166;55.090;37.460;2023-05-10T09:27:17;2.10;;;0.98;;
78818;SDS011;68166;55.090;37.460;2023-05-10T09:32:19;2.13;;;0.88;;
78818;SDS011;68166;55.090;37.460;2023-05-10T09:37:21;1.70;;;0.40;;
78818;SDS011;68166;55.090;37.460;2023-05-10T09:42:30;2.10;;;0.80;;
78818;SDS011;68166;55.090;37.460;2023-05-10T09:47:33;2.85;;;0.90;;
78818;SDS011;68166;55.090;37.460;2023-05-10T09:57:59;1.75;;;0.82;;
78818;SDS011;68166;55.090;37.460;2023-05-10T10:03:02;1.90;;;0.90;;
78818;SDS011;68166;55.090;37.460;2023-05-10T10:08:04;1.75;;;0.63;;
78818;SDS011;68166;55.090;37.460;2023-05-10T10:13:07;2.20;;;1.05;;
78818;SDS011;68166;55.090;37.460;2023-05-10T10:18:13;2.45;;;0.93;;
78818;SDS011;68166;55.090;37.460;2023-05-10T10:23:18;2.58;;;1.45;;
78818;SDS011;68166;55.090;37.460;2023-05-10T10:28:44;1.90;;;0.75;;
78818;SDS011;68166;55.090;37.460;2023-05-10T10:34:09;4.70;;;1.10;;
78818;SDS011;68166;55.090;37.460;2023-05-10T10:39:17;1.60;;;0.70;;
78818;SDS011;68166;55.090;37.460;2023-05-10T10:54:53;3.58;;;0.95;;
78818;SDS011;68166;55.090;37.460;2023-05-10T11:00:18;2.63;;;1.27;;
78818;SDS011;68166;55.090;37.460;2023-05-10T11:10:49;2.97;;;1.00;;
78818;SDS011;68166;55.090;37.460;2023-05-10T11:15:53;3.42;;;1.20;;
78818;SDS011;68166;55.090;37.460;2023-05-10T11:26:01;2.30;;;1.20;;
78818;SDS011;68166;55.090;37.460;2023-05-10T11:31:03;4.00;;;0.88;;
78818;SDS011;68166;55.090;37.460;2023-05-10T11:36:05;3.53;;;1.30;;
78818;SDS011;68166;55.090;37.460;2023-05-10T11:41:10;3.35;;;0.90;;
78818;SDS011;68166;55.090;37.460;2023-05-10T11:46:13;2.17;;;0.82;;
78818;SDS011;68166;55.090;37.460;2023-05-10T11:51:15;2.15;;;1.15;;
78818;SDS011;68166;55.090;37.460;2023-05-10T11:56:24;2.60;;;1.27;;
78818;SDS011;68166;55.090;37.460;2023-05-10T12:01:27;2.83;;;1.30;;
78818;SDS011;68166;55.090;37.460;2023-05-10T12:06:30;3.45;;;1.10;;
78818;SDS011;68166;55.090;37.460;2023-05-10T12:11:36;2.55;;;1.15;;
78818;SDS011;68166;55.090;37.460;2023-05-10T12:16:39;3.63;;;1.30;;
78818;SDS011;68166;55.090;37.460;2023-05-10T12:21:42;2.70;;;1.10;;
78818;SDS011;68166;55.090;37.460;2023-05-10T12:26:45;2.22;;;1.42;;
78818;SDS011;68166;55.090;37.460;2023-05-10T12:36:53;2.83;;;1.08;;
78818;SDS011;68166;55.090;37.460;2023-05-10T12:41:55;4.85;;;1.20;;
78818;SDS011;68166;55.090;37.460;2023-05-10T12:46:57;2.95;;;1.10;;
78818;SDS011;68166;55.090;37.460;2023-05-10T12:51:59;2.85;;;1.10;;
78818;SDS011;68166;55.090;37.460;2023-05-10T12:57:01;2.85;;;1.25;;
78818;SDS011;68166;55.090;37.460;2023-05-10T13:02:03;3.90;;;1.60;;
78818;SDS011;68166;55.090;37.460;2023-05-10T13:07:06;2.42;;;1.27;;
78818;SDS011;68166;55.090;37.460;2023-05-10T13:12:08;1.83;;;1.02;;
78818;SDS011;68166;55.090;37.460;2023-05-10T13:17:10;2.28;;;0.93;;
78818;SDS011;68166;55.090;37.460;2023-05-10T13:22:12;1.73;;;0.93;;
78818;SDS011;68166;55.090;37.460;2023-05-10T13:27:14;2.20;;;1.20;;
78818;SDS011;68166;55.090;37.460;2023-05-10T13:32:16;3.33;;;1.20;;
78818;SDS011;68166;55.090;37.460;2023-05-10T13:37:18;2.42;;;1.52;;
78818;SDS011;68166;55.090;37.460;2023-05-10T13:42:20;3.20;;;1.13;;
78818;SDS011;68166;55.090;37.460;2023-05-10T13:47:22;2.97;;;1.25;;
78818;SDS011;68166;55.090;37.460;2023-05-10T13:52:25;2.65;;;1.35;;
78818;SDS011;68166;55.090;37.460;2023-05-10T13:57:27;2.63;;;0.95;;
78818;SDS011;68166;55.090;37.460;2023-05-10T14:02:31;3.03;;;1.40;;
78818;SDS011;68166;55.090;37.460;2023-05-10T14:07:33;6.40;;;2.13;;
78818;SDS011;68166;55.090;37.460;2023-05-10T14:12:35;2.58;;;1.17;;
78818;SDS011;68166;55.090;37.460;2023-05-10T14:17:37;3.20;;;1.23;;
78818;SDS011;68166;55.090;37.460;2023-05-10T14:22:39;2.38;;;1.08;;
78818;SDS011;68166;55.090;37.460;2023-05-10T14:27:41;3.40;;;1.55;;
78818;SDS011;68166;55.090;37.460;2023-05-10T14:32:43;4.47;;;2.13;;
78818;SDS011;68166;55.090;37.460;2023-05-10T14:37:47;2.50;;;1.80;;
78818;SDS011;68166;55.090;37.460;2023-05-10T14:42:49;4.05;;;1.38;;
78818;SDS011;68166;55.090;37.460;2023-05-10T14:47:53;5.05;;;2.03;;
78818;SDS011;68166;55.090;37.460;2023-05-10T14:52:55;4.07;;;1.80;;
78818;SDS011;68166;55.090;37.460;2023-05-10T14:57:57;3.25;;;1.52;;
78818;SDS011;68166;55.090;37.460;2023-05-10T15:02:59;3.72;;;1.67;;
78818;SDS011;68166;55.090;37.460;2023-05-10T15:08:02;4.00;;;1.80;;
78818;SDS011;68166;55.090;37.460;2023-05-10T15:13:04;6.45;;;1.48;;
78818;SDS011;68166;55.090;37.460;2023-05-10T15:18:06;2.22;;;1.17;;
78818;SDS011;68166;55.090;37.460;2023-05-10T15:23:08;2.17;;;1.13;;
78818;SDS011;68166;55.090;37.460;2023-05-10T15:28:10;3.97;;;1.90;;
78818;SDS011;68166;55.090;37.460;2023-05-10T15:33:12;5.10;;;1.65;;
78818;SDS011;68166;55.090;37.460;2023-05-10T15:38:14;7.07;;;1.83;;
78818;SDS011;68166;55.090;37.460;2023-05-10T15:43:16;4.22;;;1.40;;
78818;SDS011;68166;55.090;37.460;2023-05-10T15:48:18;4.32;;;1.23;;
78818;SDS011;68166;55.090;37.460;2023-05-10T15:53:23;3.17;;;1.17;;
78818;SDS011;68166;55.090;37.460;2023-05-10T15:58:25;5.05;;;1.20;;
78818;SDS011;68166;55.090;37.460;2023-05-10T16:03:27;3.42;;;1.40;;
78818;SDS011;68166;55.090;37.460;2023-05-10T16:08:29;6.95;;;1.23;;
78818;SDS011;68166;55.090;37.460;2023-05-10T16:13:30;4.07;;;1.60;;
78818;SDS011;68166;55.090;37.460;2023-05-10T16:18:33;3.42;;;1.45;;
78818;SDS011;68166;55.090;37.460;2023-05-10T16:23:35;2.25;;;1.10;;
78818;SDS011;68166;55.090;37.460;2023-05-10T16:28:37;5.13;;;1.38;;
78818;SDS011;68166;55.090;37.460;2023-05-10T16:33:40;8.93;;;2.22;;
78818;SDS011;68166;55.090;37.460;2023-05-10T16:38:42;8.52;;;1.63;;
78818;SDS011;68166;55.090;37.460;2023-05-10T16:43:44;12.63;;;2.08;;
78818;SDS011;68166;55.090;37.460;2023-05-10T16:48:46;5.18;;;1.60;;
78818;SDS011;68166;55.090;37.460;2023-05-10T16:53:52;7.90;;;1.25;;
78818;SDS011;68166;55.090;37.460;2023-05-10T16:58:57;11.00;;;1.80;;
78818;SDS011;68166;55.090;37.460;2023-05-10T17:03:59;3.55;;;1.23;;
78818;SDS011;68166;55.090;37.460;2023-05-10T17:09:03;2.85;;;1.20;;
78818;SDS011;68166;55.090;37.460;2023-05-10T17:14:05;7.47;;;1.60;;
78818;SDS011;68166;55.090;37.460;2023-05-10T17:19:10;2.95;;;1.13;;
78818;SDS011;68166;55.090;37.460;2023-05-10T17:24:12;6.53;;;1.65;;
78818;SDS011;68166;55.090;37.460;2023-05-10T17:29:14;7.55;;;3.05;;
78818;SDS011;68166;55.090;37.460;2023-05-10T17:34:16;2.65;;;1.58;;
78818;SDS011;68166;55.090;37.460;2023-05-10T17:39:18;5.07;;;1.60;;
78818;SDS011;68166;55.090;37.460;2023-05-10T17:44:20;6.57;;;1.88;;
78818;SDS011;68166;55.090;37.460;2023-05-10T17:49:22;7.38;;;2.88;;
78818;SDS011;68166;55.090;37.460;2023-05-10T17:54:24;5.13;;;2.13;;
78818;SDS011;68166;55.090;37.460;2023-05-10T17:59:26;4.65;;;2.55;;
78818;SDS011;68166;55.090;37.460;2023-05-10T18:04:28;3.70;;;2.03;;
78818;SDS011;68166;55.090;37.460;2023-05-10T18:09:31;7.25;;;2.40;;
78818;SDS011;68166;55.090;37.460;2023-05-10T18:14:34;6.35;;;3.35;;
78818;SDS011;68166;55.090;37.460;2023-05-10T18:19:36;11.10;;;4.13;;
78818;SDS011;68166;55.090;37.460;2023-05-10T18:24:38;6.13;;;3.40;;
78818;SDS011;68166;55.090;37.460;2023-05-10T18:29:41;4.60;;;3.33;;
78818;SDS011;68166;55.090;37.460;2023-05-10T18:34:43;6.95;;;3.92;;
78818;SDS011;68166;55.090;37.460;2023-05-10T18:39:45;4.35;;;2.72;;
78818;SDS011;68166;55.090;37.460;2023-05-10T18:44:47;3.28;;;2.03;;
78818;SDS011;68166;55.090;37.460;2023-05-10T18:49:49;6.13;;;3.30;;
78818;SDS011;68166;55.090;37.460;2023-05-10T18:54:51;4.53;;;2.30;;
78818;SDS011;68166;55.090;37.460;2023-05-10T18:59:53;5.40;;;2.80;;
78818;SDS011;68166;55.090;37.460;2023-05-10T19:04:55;4.80;;;2.20;;
78818;SDS011;68166;55.090;37.460;2023-05-10T19:09:59;5.15;;;2.53;;
78818;SDS011;68166;55.090;37.460;2023-05-10T19:15:01;6.15;;;3.00;;
78818;SDS011;68166;55.090;37.460;2023-05-10T19:20:04;5.38;;;3.00;;
78818;SDS011;68166;55.090;37.460;2023-05-10T19:25:06;4.82;;;2.63;;
78818;SDS011;68166;55.090;37.460;2023-05-10T19:30:09;5.93;;;2.45;;
78818;SDS011;68166;55.090;37.460;2023-05-10T19:35:11;5.05;;;1.98;;
78818;SDS011;68166;55.090;37.460;2023-05-10T19:40:13;4.10;;;2.22;;
78818;SDS011;68166;55.090;37.460;2023-05-10T19:45:16;4.05;;;2.22;;
78818;SDS011;68166;55.090;37.460;2023-05-10T19:50:18;5.10;;;2.60;;
78818;SDS011;68166;55.090;37.460;2023-05-10T19:55:27;4.30;;;1.85;;
78818;SDS011;68166;55.090;37.460;2023-05-10T20:00:30;8.75;;;3.33;;
78818;SDS011;68166;55.090;37.460;2023-05-10T20:05:32;6.70;;;2.35;;
78818;SDS011;68166;55.090;37.460;2023-05-10T20:10:34;4.25;;;2.03;;
78818;SDS011;68166;55.090;37.460;2023-05-10T20:15:36;4.45;;;1.85;;
78818;SDS011;68166;55.090;37.460;2023-05-10T20:20:38;5.25;;;2.25;;
78818;SDS011;68166;55.090;37.460;2023-05-10T20:25:39;4.07;;;2.40;;
78818;SDS011;68166;55.090;37.460;2023-05-10T20:30:41;4.38;;;2.35;;
78818;SDS011;68166;55.090;37.460;2023-05-10T20:35:43;7.47;;;2.88;;
78818;SDS011;68166;55.090;37.460;2023-05-10T20:40:45;4.63;;;2.20;;
78818;SDS011;68166;55.090;37.460;2023-05-10T20:45:49;3.58;;;1.90;;
78818;SDS011;68166;55.090;37.460;2023-05-10T20:50:51;4.78;;;2.13;;
78818;SDS011;68166;55.090;37.460;2023-05-10T20:55:53;4.07;;;2.72;;
78818;SDS011;68166;55.090;37.460;2023-05-10T21:00:54;9.07;;;3.78;;
78818;SDS011;68166;55.090;37.460;2023-05-10T21:05:56;7.53;;;1.90;;
78818;SDS011;68166;55.090;37.460;2023-05-10T21:11:00;10.73;;;2.97;;
78818;SDS011;68166;55.090;37.460;2023-05-10T21:16:04;4.13;;;1.77;;
78818;SDS011;68166;55.090;37.460;2023-05-10T21:21:06;3.17;;;2.38;;
78818;SDS011;68166;55.090;37.460;2023-05-10T21:26:08;5.95;;;2.83;;
78818;SDS011;68166;55.090;37.460;2023-05-10T21:31:10;10.15;;;1.90;;
78818;SDS011;68166;55.090;37.460;2023-05-10T21:36:12;3.65;;;2.20;;
78818;SDS011;68166;55.090;37.460;2023-05-10T21:41:23;4.28;;;1.67;;
78818;SDS011;68166;55.090;37.460;2023-05-10T21:46:25;2.78;;;1.88;;
78818;SDS011;68166;55.090;37.460;2023-05-10T21:51:27;4.70;;;2.50;;
78818;SDS011;68166;55.090;37.460;2023-05-10T21:56:29;3.55;;;1.85;;
78818;SDS011;68166;55.090;37.460;2023-05-10T22:01:31;5.03;;;2.50;;
78818;SDS011;68166;55.090;37.460;2023-05-10T22:06:33;7.82;;;3.65;;
78818;SDS011;68166;55.090;37.460;2023-05-10T22:11:38;5.75;;;3.38;;
78818;SDS011;68166;55.090;37.460;2023-05-10T22:16:39;4.65;;;2.30;;
78818;SDS011;68166;55.090;37.460;2023-05-10T22:21:44;6.25;;;3.38;;
78818;SDS011;68166;55.090;37.460;2023-05-10T22:26:46;19.85;;;8.63;;
78818;SDS011;68166;55.090;37.460;2023-05-10T22:31:48;21.55;;;6.50;;
78818;SDS011;68166;55.090;37.460;2023-05-10T22:36:50;25.98;;;7.32;;
78818;SDS011;68166;55.090;37.460;2023-05-10T22:41:52;14.10;;;6.70;;
78818;SDS011;68166;55.090;37.460;2023-05-10T22:46:54;14.93;;;6.18;;
78818;SDS011;68166;55.090;37.460;2023-05-10T22:51:56;16.00;;;7.20;;
78818;SDS011;68166;55.090;37.460;2023-05-10T22:56:58;12.73;;;6.30;;
78818;SDS011;68166;55.090;37.460;2023-05-10T23:02:00;10.00;;;4.97;;
78818;SDS011;68166;55.090;37.460;2023-05-10T23:07:02;15.57;;;5.05;;
78818;SDS011;68166;55.090;37.460;2023-05-10T23:12:04;24.27;;;4.75;;
78818;SDS011;68166;55.090;37.460;2023-05-10T23:17:06;13.05;;;3.90;;
78818;SDS011;68166;55.090;37.460;2023-05-10T23:22:08;6.72;;;4.00;;
78818;SDS011;68166;55.090;37.460;2023-05-10T23:27:10;5.50;;;3.15;;
78818;SDS011;68166;55.090;37.460;2023-05-10T23:32:12;5.22;;;2.53;;
78818;SDS011;68166;55.090;37.460;2023-05-10T23:37:14;4.65;;;3.13;;
78818;SDS011;68166;55.090;37.460;2023-05-10T23:42:16;6.38;;;3.13;;
78818;SDS011;68166;55.090;37.460;2023-05-10T23:47:18;4.18;;;2.65;;
78818;SDS011;68166;55.090;37.460;2023-05-10T23:52:20;4.97;;;2.47;;
78818;SDS011;68166;55.090;37.460;2023-05-10T23:57:24;6.63;;;3.95;;
